Map

Track Data

SID SEASON NUMBER BASIN SUBBASIN NAME ISO_TIME NATURE LAT LON WMO_WIND WMO_PRES WMO_AGENCY TRACK_TYPE DIST2LAND LANDFALL IFLAG USA_AGENCY USA_ATCF_ID USA_LAT USA_LON USA_RECORD USA_STATUS USA_WIND USA_PRES USA_SSHS USA_R34_NE USA_R34_SE USA_R34_SW USA_R34_NW USA_R50_NE USA_R50_SE USA_R50_SW USA_R50_NW USA_R64_NE USA_R64_SE USA_R64_SW USA_R64_NW USA_POCI USA_ROCI USA_RMW USA_EYE TOKYO_LAT TOKYO_LON TOKYO_GRADE TOKYO_WIND TOKYO_PRES TOKYO_R50_DIR TOKYO_R50_LONG TOKYO_R50_SHORT TOKYO_R30_DIR TOKYO_R30_LONG TOKYO_R30_SHORT TOKYO_LAND CMA_LAT CMA_LON CMA_CAT CMA_WIND CMA_PRES HKO_LAT HKO_LON HKO_CAT HKO_WIND HKO_PRES NEWDELHI_LAT NEWDELHI_LON NEWDELHI_GRADE NEWDELHI_WIND NEWDELHI_PRES NEWDELHI_CI NEWDELHI_DP NEWDELHI_POCI REUNION_LAT REUNION_LON REUNION_TYPE REUNION_WIND REUNION_PRES REUNION_TNUM REUNION_CI REUNION_RMW REUNION_R34_NE REUNION_R34_SE REUNION_R34_SW REUNION_R34_NW REUNION_R50_NE REUNION_R50_SE REUNION_R50_SW REUNION_R50_NW REUNION_R64_NE REUNION_R64_SE REUNION_R64_SW REUNION_R64_NW BOM_LAT BOM_LON BOM_TYPE BOM_WIND BOM_PRES BOM_TNUM BOM_CI BOM_RMW BOM_R34_NE BOM_R34_SE BOM_R34_SW BOM_R34_NW BOM_R50_NE BOM_R50_SE BOM_R50_SW BOM_R50_NW BOM_R64_NE BOM_R64_SE BOM_R64_SW BOM_R64_NW BOM_ROCI BOM_POCI BOM_EYE BOM_POS_METHOD BOM_PRES_METHOD NADI_LAT NADI_LON NADI_CAT NADI_WIND NADI_PRES WELLINGTON_LAT WELLINGTON_LON WELLINGTON_WIND WELLINGTON_PRES DS824_LAT DS824_LON DS824_STAGE DS824_WIND DS824_PRES TD9636_LAT TD9636_LON TD9636_STAGE TD9636_WIND TD9636_PRES TD9635_LAT TD9635_LON TD9635_WIND TD9635_PRES TD9635_ROCI NEUMANN_LAT NEUMANN_LON NEUMANN_CLASS NEUMANN_WIND NEUMANN_PRES MLC_LAT MLC_LON MLC_CLASS MLC_WIND MLC_PRES USA_GUST BOM_GUST BOM_GUST_PER REUNION_GUST REUNION_GUST_PER USA_SEAHGT USA_SEARAD_NE USA_SEARAD_SE USA_SEARAD_SW USA_SEARAD_NW STORM_SPEED STORM_DIR
1886306N10092 1886 45 NI BB NOT_NAMED 1886-11-02 00:00:00 TS 10.4000 92.2000 main 631 631 _________O____ -1 10.4000 92.2000 TC 30 2 287
1886306N10092 1886 45 NI BB NOT_NAMED 1886-11-02 03:00:00 TS 10.4334 92.0917 main 637 637 _________PO___ -1 10.4500 92.0375 TC 30 10.4000 92.2000 1 2 289
1886306N10092 1886 45 NI BB NOT_NAMED 1886-11-02 06:00:00 TS 10.4788 91.9731 main 647 647 _________OP___ -1 10.5000 91.9000 TC 30 10.4469 92.0828 1 2 293
1886306N10092 1886 45 NI BB NOT_NAMED 1886-11-02 09:00:00 TS 10.5264 91.8696 main 652 646 _________PP___ -1 10.5500 91.8000 TC 30 10.4950 91.9625 1 2 295
1886306N10092 1886 45 NI BB NOT_NAMED 1886-11-02 12:00:00 TS 10.5728 91.7680 main 646 646 _________OP___ -1 10.6000 91.7000 TC 30 10.5456 91.8359 1 3 292
1886306N10092 1886 45 NI BB NOT_NAMED 1886-11-02 15:00:00 TS 10.6250 91.6250 main 656 646 _________PO___ -1 10.6500 91.5500 TC 38 10.6000 91.7000 1 3 290
1886306N10092 1886 45 NI BB NOT_NAMED 1886-11-02 18:00:00 TS 10.6791 91.4774 main 651 651 _________OP___ -1 10.7000 91.4000 TC 47 10.6582 91.5547 1 3 292
1886306N10092 1886 45 NI BB NOT_NAMED 1886-11-02 21:00:00 TS 10.7363 91.3450 main 662 652 _________PP___ -1 10.7575 91.2775 TC 55 10.7150 91.4125 1 3 294
1886306N10092 1886 45 NI BB NOT_NAMED 1886-11-03 00:00:00 TS 10.7822 91.2445 main 658 658 _________OP___ -1 10.8000 91.2000 TC 64 10.7644 91.2891 1 2 294
1886306N10092 1886 45 NI BB NOT_NAMED 1886-11-03 03:00:00 TS 10.8037 91.1925 main 658 658 _________PO___ -1 10.8075 91.1850 TC 64 10.8000 91.2000 4 1 297
1886306N10092 1886 45 NI BB NOT_NAMED 1886-11-03 06:00:00 TS 10.8072 91.1820 main 658 658 _________OP___ -1 10.8000 91.2000 TC 64 10.8143 91.1640 4 0 0
1886306N10092 1886 45 NI BB NOT_NAMED 1886-11-03 09:00:00 TS 10.8075 91.1812 main 658 658 _________PP___ -1 10.8000 91.2000 TC 64 10.8150 91.1625 4 0 0
1886306N10092 1886 45 NI BB NOT_NAMED 1886-11-03 12:00:00 TS 10.8041 91.1898 main 658 658 _________OP___ -1 10.8000 91.2000 TC 64 10.8081 91.1797 4 0 0
1886306N10092 1886 45 NI BB NOT_NAMED 1886-11-03 15:00:00 TS 10.8000 91.2000 main 658 658 _________PO___ -1 10.8000 91.2000 TC 64 10.8000 91.2000 4 0 0
1886306N10092 1886 45 NI BB NOT_NAMED 1886-11-03 18:00:00 TS 10.7979 91.2162 main 658 658 _________OP___ -1 10.8000 91.2000 TC 64 10.7959 91.2325 4 0 96
1886306N10092 1886 45 NI BB NOT_NAMED 1886-11-03 21:00:00 TS 10.7962 91.2412 main 658 658 _________PP___ -1 10.8000 91.2225 TC 64 10.7924 91.2600 4 0 0
1886306N10092 1886 45 NI BB NOT_NAMED 1886-11-04 00:00:00 TS 10.7964 91.2287 main 658 658 _________OP___ -1 10.8000 91.2000 TC 64 10.7927 91.2575 4 1 270
1886306N10092 1886 45 NI BB NOT_NAMED 1886-11-04 03:00:00 TS 10.7962 91.1437 main 664 664 _________PO___ -1 10.7925 91.0875 TC 64 10.8000 91.2000 4 2 273
1886306N10092 1886 45 NI BB NOT_NAMED 1886-11-04 06:00:00 TS 10.8089 90.9788 main 669 669 _________OP___ -1 10.8000 90.9000 TC 64 10.8179 91.0575 4 4 278
1886306N10092 1886 45 NI BB NOT_NAMED 1886-11-04 09:00:00 TS 10.8463 90.7588 main 682 679 _________PP___ -1 10.8500 90.6575 TC 64 10.8426 90.8600 4 5 280
1886306N10092 1886 45 NI BB NOT_NAMED 1886-11-04 12:00:00 TS 10.8855 90.5163 main 692 692 _________OP___ -1 10.9000 90.4000 TC 64 10.8710 90.6325 4 5 277
1886306N10092 1886 45 NI BB NOT_NAMED 1886-11-04 15:00:00 TS 10.9000 90.2962 main 705 705 _________PO___ -1 10.9000 90.1925 TC 64 10.9000 90.4000 4 4 274
1886306N10092 1886 45 NI BB NOT_NAMED 1886-11-04 18:00:00 TS 10.9125 90.1000 main 719 719 _________OP___ -1 10.9000 90.0000 TC 64 10.9250 90.2000 4 4 277
1886306N10092 1886 45 NI BB NOT_NAMED 1886-11-04 21:00:00 TS 10.9462 89.9000 main 733 725 _________PP___ -1 10.9425 89.8000 TC 64 10.9499 90.0000 4 4 281
1886306N10092 1886 45 NI BB NOT_NAMED 1886-11-05 00:00:00 TS 10.9875 89.7000 main 739 739 _________OP___ -1 11.0000 89.6000 TC 64 10.9750 89.8000 4 4 282
1886306N10092 1886 45 NI BB NOT_NAMED 1886-11-05 03:00:00 TS 11.0287 89.5000 main 754 754 _________PO___ -1 11.0575 89.4000 TC 64 11.0000 89.6000 4 4 280
1886306N10092 1886 45 NI BB NOT_NAMED 1886-11-05 06:00:00 TS 11.0605 89.2959 main 762 762 _________OP___ -1 11.1000 89.2000 TC 64 11.0209 89.3919 4 4 276
1886306N10092 1886 45 NI BB NOT_NAMED 1886-11-05 09:00:00 TS 11.0713 89.0887 main 777 777 _________PP___ -1 11.1000 88.9925 TC 64 11.0425 89.1850 4 4 273
1886306N10092 1886 45 NI BB NOT_NAMED 1886-11-05 12:00:00 TS 11.0839 88.8928 main 793 793 _________OP___ -1 11.1000 88.8000 TC 64 11.0678 88.9856 4 4 278
1886306N10092 1886 45 NI BB NOT_NAMED 1886-11-05 15:00:00 TS 11.1212 88.7213 main 809 809 _________PO___ -1 11.1425 88.6425 TC 64 11.1000 88.8000 4 3 286
1886306N10092 1886 45 NI BB NOT_NAMED 1886-11-05 18:00:00 TS 11.1713 88.5820 main 809 809 _________OP___ -1 11.2000 88.5000 TC 64 11.1426 88.6640 4 3 291
1886306N10092 1886 45 NI BB NOT_NAMED 1886-11-05 21:00:00 TS 11.2211 88.4587 main 817 817 _________PP___ -1 11.2499 88.3800 TC 64 11.1922 88.5374 4 3 290
1886306N10092 1886 45 NI BB NOT_NAMED 1886-11-06 00:00:00 TS 11.2728 88.2961 main 822 803 _________OP___ -1 11.3000 88.2000 TC 64 11.2457 88.3921 4 4 284
1886306N10092 1886 45 NI BB NOT_NAMED 1886-11-06 03:00:00 TS 11.3250 88.0363 main 793 767 _________PO___ -1 11.3501 87.8725 TC 64 11.3000 88.2000 4 6 280
1886306N10092 1886 45 NI BB NOT_NAMED 1886-11-06 06:00:00 TS 11.3731 87.7086 main 767 738 _________OP___ -1 11.4000 87.5000 TC 64 11.3461 87.9172 4 6 279
1886306N10092 1886 45 NI BB NOT_NAMED 1886-11-06 09:00:00 TS 11.4213 87.3900 main 738 714 _________PP___ -1 11.4499 87.1925 TC 64 11.3927 87.5875 4 6 279
1886306N10092 1886 45 NI BB NOT_NAMED 1886-11-06 12:00:00 TS 11.4715 87.0695 main 714 686 _________OP___ -1 11.5000 86.9000 TC 64 11.4430 87.2390 4 6 279
1886306N10092 1886 45 NI BB NOT_NAMED 1886-11-06 15:00:00 TS 11.5212 86.7462 main 676 663 _________PO___ -1 11.5425 86.5925 TC 64 11.5000 86.9000 4 6 280
1886306N10092 1886 45 NI BB NOT_NAMED 1886-11-06 18:00:00 TS 11.5818 86.4593 main 663 636 _________OP___ -1 11.6000 86.3000 TC 64 11.5635 86.6187 4 6 285
1886306N10092 1886 45 NI BB NOT_NAMED 1886-11-06 21:00:00 TS 11.6636 86.2037 main 642 623 _________PP___ -1 11.6924 86.0575 TC 64 11.6347 86.3499 4 5 289
1886306N10092 1886 45 NI BB NOT_NAMED 1886-11-07 00:00:00 TS 11.7568 85.9406 main 620 592 _________OP___ -1 11.8000 85.8000 TC 64 11.7135 86.0812 4 6 288
1886306N10092 1886 45 NI BB NOT_NAMED 1886-11-07 03:00:00 TS 11.8500 85.6288 main 591 558 _________PO___ -1 11.9000 85.4575 TC 64 11.8000 85.8000 4 7 287
1886306N10092 1886 45 NI BB NOT_NAMED 1886-11-07 06:00:00 TS 11.9464 85.2927 main 558 524 _________OP___ -1 12.0000 85.1000 TC 64 11.8928 85.4853 4 7 287
1886306N10092 1886 45 NI BB NOT_NAMED 1886-11-07 09:00:00 TS 12.0462 84.9750 main 524 491 _________PP___ -1 12.0999 84.7925 TC 64 11.9925 85.1575 4 6 288
1886306N10092 1886 45 NI BB NOT_NAMED 1886-11-07 12:00:00 TS 12.1480 84.6630 main 491 457 _________OP___ -1 12.2000 84.5000 TC 64 12.0959 84.8259 4 6 288
1886306N10092 1886 45 NI BB NOT_NAMED 1886-11-07 15:00:00 TS 12.2500 84.3500 main 446 424 _________PO___ -1 12.3000 84.2000 TC 64 12.2000 84.5000 4 6 289
1886306N10092 1886 45 NI BB NOT_NAMED 1886-11-07 18:00:00 TS 12.3519 84.0484 main 413 391 _________OP___ -1 12.4000 83.9000 TC 64 12.3039 84.1968 4 6 289
1886306N10092 1886 45 NI BB NOT_NAMED 1886-11-07 21:00:00 TS 12.4536 83.7537 main 390 358 _________PP___ -1 12.4999 83.6075 TC 64 12.4073 83.8999 4 6 289
1886306N10092 1886 45 NI BB NOT_NAMED 1886-11-08 00:00:00 TS 12.5535 83.4515 main 355 313 _________OP___ -1 12.6000 83.3000 TC 64 12.5070 83.6031 4 6 288
1886306N10092 1886 45 NI BB NOT_NAMED 1886-11-08 03:00:00 TS 12.6538 83.1250 main 310 279 _________PO___ -1 12.7075 82.9500 TC 64 12.6000 83.3000 4 7 286
1886306N10092 1886 45 NI BB NOT_NAMED 1886-11-08 06:00:00 TS 12.7390 82.7910 main 279 244 _________OP___ -1 12.8000 82.6000 TC 64 12.6780 82.9821 4 6 283
1886306N10092 1886 45 NI BB NOT_NAMED 1886-11-08 09:00:00 TS 12.7999 82.4786 main 244 210 _________PP___ -1 12.8499 82.2999 TC 64 12.7499 82.6573 4 6 281
1886306N10092 1886 45 NI BB NOT_NAMED 1886-11-08 12:00:00 TS 12.8609 82.1645 main 210 168 _________OP___ -1 12.9000 82.0000 TC 64 12.8218 82.3289 4 7 283
1886306N10092 1886 45 NI BB NOT_NAMED 1886-11-08 15:00:00 TS 12.9463 81.8250 main 168 134 _________PO___ -1 12.9925 81.6500 TC 64 12.9000 82.0000 4 7 286
1886306N10092 1886 45 NI BB NOT_NAMED 1886-11-08 18:00:00 TS 13.0379 81.5137 main 134 110 _________OP___ -1 13.1000 81.3000 TC 64 12.9759 81.7273 4 6 287
1886306N10092 1886 45 NI BB NOT_NAMED 1886-11-08 21:00:00 TS 13.1230 81.2457 main 100 65 _________PP___ -1 13.1847 81.0448 TC 64 13.0614 81.4467 4 6 288
1886306N10092 1886 45 NI BB NOT_NAMED 1886-11-09 00:00:00 TS 13.2331 80.9089 main 65 10 _________OP___ -1 13.3000 80.7000 TC 64 13.1662 81.1177 4 9 288
1886306N10092 1886 45 NI BB NOT_NAMED 1886-11-09 03:00:00 TS 13.3926 80.4013 main 10 0 _________PO___ -1 13.4852 80.1026 TC 55 13.3000 80.7000 4 12 288
1886306N10092 1886 45 NI BB NOT_NAMED 1886-11-09 06:00:00 TS 13.5879 79.7719 main 0 0 _________OP___ -1 13.7000 79.4000 TC 47 13.4758 80.1437 4 13 288
1886306N10092 1886 45 NI BB NOT_NAMED 1886-11-09 09:00:00 TS 13.7890 79.1238 main 0 0 _________PP___ -1 13.8998 78.7499 TC 38 13.6781 79.4978 4 13 288
1886306N10092 1886 45 NI BB NOT_NAMED 1886-11-09 12:00:00 TS 13.9956 78.4515 main 0 0 _________OP___ -1 14.1000 78.1000 TC 30 13.8913 78.8029 4 14 288
1886306N10092 1886 45 NI AS NOT_NAMED 1886-11-09 15:00:00 TS 14.2037 77.7750 main 0 0 _________PO___ -1 14.3073 77.4500 TC 30 14.1000 78.1000 1 13 287
1886306N10092 1886 45 NI AS NOT_NAMED 1886-11-09 18:00:00 TS 14.3927 77.1309 main 0 0 _________OP___ -1 14.5000 76.8000 TC 30 14.2855 77.4618 1 13 286
1886306N10092 1886 45 NI AS NOT_NAMED 1886-11-09 21:00:00 TS 14.5606 76.4896 main 0 0 _________PP___ -1 14.6573 76.1573 TC 30 14.4639 76.8220 1 13 285
1886306N10092 1886 45 NI AS NOT_NAMED 1886-11-10 00:00:00 TS 14.7177 75.8356 main 0 0 _________OP___ -1 14.8000 75.5000 TC 30 14.6354 76.1712 1 13 284
1886306N10092 1886 45 NI AS NOT_NAMED 1886-11-10 03:00:00 TS 14.8749 75.1574 main 0 0 _________PO___ -1 14.9498 74.8149 TC 38 14.8000 75.5000 1 14 283
1886306N10092 1886 45 NI AS NOT_NAMED 1886-11-10 06:00:00 TS 15.0323 74.4543 main 0 0 _________OP___ -1 15.1000 74.1000 TC 47 14.9647 74.8085 1 14 283
1886306N10092 1886 45 NI AS NOT_NAMED 1886-11-10 09:00:00 TS 15.1894 73.7298 main 24 24 _________PP___ -1 15.2572 73.3650 TC 55 15.1215 74.0947 1 15 282
1886306N10092 1886 45 NI AS NOT_NAMED 1886-11-10 12:00:00 TS 15.3338 72.9792 main 82 82 _________OP___ -1 15.4000 72.6000 TC 64 15.2676 73.3585 1 15 280
1886306N10092 1886 45 NI AS NOT_NAMED 1886-11-10 15:00:00 TS 15.4536 72.2037 main 154 154 _________PO___ -1 15.5073 71.8074 TC 64 15.4000 72.6000 4 16 278
1886306N10092 1886 45 NI AS NOT_NAMED 1886-11-10 18:00:00 TS 15.5618 71.3703 main 226 226 _________OP___ -1 15.6000 71.0000 TC 64 15.5237 71.7406 4 17 277
1886306N10092 1886 45 NI AS NOT_NAMED 1886-11-10 21:00:00 TS 15.6698 70.4990 main 312 312 _________PP___ -1 15.7078 70.1251 TC 64 15.6318 70.8728 4 16 277
1886306N10092 1886 45 NI AS NOT_NAMED 1886-11-11 00:00:00 TS 15.7619 69.7343 main 392 392 _________OP___ -1 15.8000 69.4000 TC 64 15.7238 70.0686 4 12 277
1886306N10092 1886 45 NI AS NOT_NAMED 1886-11-11 03:00:00 TS 15.8285 69.2124 main 444 444 _________PO___ -1 15.8570 69.0249 TC 64 15.8000 69.4000 4 8 278
1886306N10092 1886 45 NI AS NOT_NAMED 1886-11-11 06:00:00 TS 15.8813 68.8780 main 474 474 _________OP___ -1 15.9000 68.8000 TC 64 15.8626 68.9559 4 6 280
1886306N10092 1886 45 NI AS NOT_NAMED 1886-11-11 09:00:00 TS 15.9314 68.5748 main 506 506 _________PP___ -1 15.9500 68.5000 TC 64 15.9128 68.6496 4 6 280
1886306N10092 1886 45 NI AS NOT_NAMED 1886-11-11 12:00:00 TS 15.9784 68.3093 main 536 536 _________OP___ -1 16.0000 68.2000 TC 64 15.9568 68.4185 4 5 280
1886306N10092 1886 45 NI AS NOT_NAMED 1886-11-11 15:00:00 TS 16.0250 68.0500 main 558 568 _________PO___ -1 16.0500 67.9000 TC 64 16.0000 68.2000 4 5 280
1886306N10092 1886 45 NI AS NOT_NAMED 1886-11-11 18:00:00 TS 16.0749 67.7500 main 598 598 _________OP___ -1 16.1000 67.6000 TC 64 16.0499 67.9000 4 6 280
1886306N10092 1886 45 NI AS NOT_NAMED 1886-11-11 21:00:00 TS 16.1249 67.4500 main 627 624 _________PP___ -1 16.1500 67.3000 TC 64 16.0998 67.5999 4 6 280
1886306N10092 1886 45 NI AS NOT_NAMED 1886-11-12 00:00:00 TS 16.1749 67.1500 main 636 636 _________OP___ -1 16.2000 67.0000 TC 64 16.1499 67.2999 4 6 280
1886306N10092 1886 45 NI AS NOT_NAMED 1886-11-12 03:00:00 TS 16.2250 66.8500 main 648 651 _________PO___ -1 16.2500 66.7000 TC 64 16.2000 67.0000 4 6 280
1886306N10092 1886 45 NI AS NOT_NAMED 1886-11-12 06:00:00 TS 16.2729 66.5479 main 663 663 _________OP___ -1 16.3000 66.4000 TC 64 16.2459 66.6959 4 6 279
1886306N10092 1886 45 NI AS NOT_NAMED 1886-11-12 09:00:00 TS 16.3212 66.2462 main 682 680 _________PP___ -1 16.3500 66.1000 TC 64 16.2924 66.3924 4 6 280
1886306N10092 1886 45 NI AS NOT_NAMED 1886-11-12 12:00:00 TS 16.3714 65.9464 main 693 693 _________OP___ -1 16.4000 65.8000 TC 64 16.3427 66.0927 4 6 280
1886306N10092 1886 45 NI AS NOT_NAMED 1886-11-12 15:00:00 TS 16.4212 65.6462 main 714 713 _________PO___ -1 16.4425 65.4925 TC 64 16.4000 65.8000 4 6 281
1886306N10092 1886 45 NI AS NOT_NAMED 1886-11-12 18:00:00 TS 16.4795 65.3791 main 721 721 _________OP___ -1 16.5000 65.2000 TC 64 16.4591 65.5581 4 5 286
1886306N10092 1886 45 NI AS NOT_NAMED 1886-11-12 21:00:00 TS 16.5556 65.1484 main 735 735 _________PP___ -1 16.5848 64.9799 TC 64 16.5265 65.3170 4 5 290
1886306N10092 1886 45 NI AS NOT_NAMED 1886-11-13 00:00:00 TS 16.6529 64.8712 main 743 743 _________OP___ -1 16.7000 64.7000 TC 64 16.6058 65.0424 4 7 289
1886306N10092 1886 45 NI AS NOT_NAMED 1886-11-13 03:00:00 TS 16.7750 64.4725 main 749 696 _________PO___ -1 16.8500 64.2451 TC 64 16.7000 64.7000 4 9 286
1886306N10092 1886 45 NI AS NOT_NAMED 1886-11-13 06:00:00 TS 16.8954 63.9713 main 696 643 _________OP___ -1 17.0000 63.7000 TC 64 16.7907 64.2425 4 10 283
1886306N10092 1886 45 NI AS NOT_NAMED 1886-11-13 09:00:00 TS 16.9952 63.4371 main 633 579 _________PP___ -1 17.0924 63.1573 TC 64 16.8980 63.7170 4 11 282
1886306N10092 1886 45 NI AS NOT_NAMED 1886-11-13 12:00:00 TS 17.1156 62.8790 main 579 512 _________OP___ -1 17.2000 62.6000 TC 64 17.0313 63.1580 4 11 285
1886306N10092 1886 45 NI AS NOT_NAMED 1886-11-13 15:00:00 TS 17.2850 62.3175 main 512 454 _________PO___ -1 17.3700 62.0349 TC 64 17.2000 62.6000 4 11 289
1886306N10092 1886 45 NI AS NOT_NAMED 1886-11-13 18:00:00 TS 17.4870 61.7581 main 454 387 _________OP___ -1 17.6000 61.5000 TC 64 17.3740 62.0162 4 11 293
1886306N10092 1886 45 NI AS NOT_NAMED 1886-11-13 21:00:00 TS 17.7254 61.2205 main 387 335 _________PP___ -1 17.8625 60.9901 TC 64 17.5883 61.4509 4 11 300
1886306N10092 1886 45 NI AS NOT_NAMED 1886-11-14 00:00:00 TS 18.0292 60.7801 main 335 292 _________OP___ -1 18.2000 60.6000 TC 64 17.8584 60.9601 4 10 314
1886306N10092 1886 45 NI AS NOT_NAMED 1886-11-14 03:00:00 TS 18.4062 60.4838 main 292 267 _________PO___ -1 18.6123 60.3675 TC 64 18.2000 60.6000 4 9 334
1886306N10092 1886 45 NI AS NOT_NAMED 1886-11-14 06:00:00 TS 18.8636 60.3508 main 260 218 _________OP___ -1 19.1000 60.3000 TC 64 18.6273 60.4016 4 10 352
1886306N10092 1886 45 NI AS NOT_NAMED 1886-11-14 09:00:00 TS 19.3832 60.3473 main 218 198 _________PP___ -1 19.6425 60.3548 TC 64 19.1240 60.3398 4 11 5
1886306N10092 1886 45 NI AS NOT_NAMED 1886-11-14 12:00:00 TS 19.9294 60.4416 main 198 167 _________OP___ -1 20.2000 60.5000 TC 64 19.6588 60.3831 4 11 11
1886306N10092 1886 45 NI AS NOT_NAMED 1886-11-14 15:00:00 TS 20.4537 60.5639 main 168 155 _________PO___ -1 20.7075 60.6277 TC 64 20.2000 60.5000 4 10 15
1886306N10092 1886 45 NI AS NOT_NAMED 1886-11-14 18:00:00 TS 20.9270 60.7213 main 155 144 _________OP___ -1 21.2000 60.8000 TC 64 20.7223 60.6623 4 10 19
1886306N10092 1886 45 NI AS NOT_NAMED 1886-11-14 21:00:00 TS 21.4144 60.9266 main 144 135 _________PP___ -1 21.6976 61.0320 TC 64 21.2256 60.8564 4 10 23
1886306N10092 1886 45 NI AS NOT_NAMED 1886-11-15 00:00:00 TS 21.8774 61.1482 main 138 138 _________OP___ -1 22.2000 61.3000 TC 64 21.7161 61.0723 4 9 24
1886306N10092 1886 45 NI AS NOT_NAMED 1886-11-15 03:00:00 NR 22.2000 61.3000 main 154 __________O___ -1 TC 22.2000 61.3000 4 7 23

About IBTrACS Database

This database is a web-friendly format of International Best Track Archive for Climate Stewardship (IBTrACS), a global best track data archive curated by NOAA dating back to 1842.

Updated: 2021-11-26